createdAt,value
2023-03-04T00:00:43.369Z,6.94
2023-03-04T00:03:11.206Z,6.98
2023-03-04T00:05:38.302Z,7.10
2023-03-04T00:08:04.932Z,6.82
2023-03-04T00:10:31.460Z,7.06
2023-03-04T00:12:57.897Z,7.17
2023-03-04T00:15:24.393Z,7.07
2023-03-04T00:17:50.932Z,7.05
2023-03-04T00:20:17.656Z,6.82
2023-03-04T00:22:44.171Z,7.16
2023-03-04T00:25:10.810Z,7.02
2023-03-04T00:27:37.327Z,7.14
2023-03-04T00:30:05.459Z,7.21
2023-03-04T00:32:32.299Z,6.73
2023-03-04T00:34:58.839Z,6.65
2023-03-04T00:37:25.391Z,6.90
2023-03-04T00:39:51.999Z,6.62
2023-03-04T00:42:18.558Z,7.11
2023-03-04T00:44:45.125Z,7.00
2023-03-04T00:47:11.579Z,6.88
2023-03-04T00:49:38.110Z,7.15
2023-03-04T00:52:04.558Z,7.04
2023-03-04T00:54:31.070Z,7.21
2023-03-04T00:56:57.534Z,6.87
2023-03-04T00:59:24.062Z,6.72
2023-03-04T01:01:50.661Z,7.05
2023-03-04T01:04:17.162Z,7.15
2023-03-04T01:06:43.637Z,7.28
2023-03-04T01:09:10.122Z,7.18
2023-03-04T01:11:36.702Z,7.16
2023-03-04T01:14:03.571Z,6.63
2023-03-04T01:16:30.236Z,7.11
2023-03-04T01:18:56.818Z,7.26
2023-03-04T01:21:23.851Z,7.28
2023-03-04T01:23:50.378Z,7.24
2023-03-04T01:26:16.974Z,7.06
2023-03-04T01:28:43.553Z,7.14
2023-03-04T01:31:10.144Z,7.22
2023-03-04T01:33:36.754Z,7.26
2023-03-04T01:36:03.290Z,7.26
2023-03-04T01:38:29.794Z,6.84
2023-03-04T01:40:56.426Z,7.18
2023-03-04T01:43:27.118Z,7.20
2023-03-04T01:45:55.002Z,7.18
2023-03-04T01:48:26.431Z,7.22
2023-03-04T01:50:53.499Z,7.15
2023-03-04T01:53:25.348Z,7.17
2023-03-04T01:55:57.597Z,7.17
2023-03-04T02:01:00.258Z,7.20
2023-03-04T02:03:27.437Z,6.92
2023-03-04T02:05:55.239Z,7.28
2023-03-04T02:08:23.551Z,7.34
2023-03-04T02:10:51.210Z,7.19
2023-03-04T02:13:18.065Z,7.29
2023-03-04T02:15:45.938Z,7.15
2023-03-04T02:18:23.389Z,7.44
2023-03-04T02:20:52.951Z,7.43
2023-03-04T02:23:30.557Z,7.33
2023-03-04T02:26:17.797Z,7.14
2023-03-04T02:28:45.690Z,7.14
2023-03-04T02:31:35.878Z,7.14
2023-03-04T02:34:06.558Z,7.13
2023-03-04T02:36:34.582Z,7.42
2023-03-04T02:39:05.651Z,7.39
2023-03-04T02:41:33.022Z,7.37
2023-03-04T02:43:59.679Z,7.33
2023-03-04T02:46:26.197Z,7.31
2023-03-04T02:48:53.125Z,7.02
2023-03-04T02:51:20.255Z,7.12
2023-03-04T02:53:46.858Z,7.31
2023-03-04T02:56:13.370Z,7.01
2023-03-04T02:58:40.691Z,7.27
2023-03-04T03:01:07.228Z,7.28
2023-03-04T03:03:33.804Z,7.24
2023-03-04T03:06:00.307Z,6.98
2023-03-04T03:08:26.874Z,7.28
2023-03-04T03:10:53.324Z,6.66
2023-03-04T03:13:19.810Z,7.25
2023-03-04T03:15:47.072Z,7.22
2023-03-04T03:18:14.428Z,7.24
2023-03-04T03:20:40.935Z,7.37
2023-03-04T03:23:07.713Z,7.22
2023-03-04T03:25:34.304Z,7.33
2023-03-04T03:28:00.777Z,7.31
2023-03-04T03:30:28.312Z,7.34
2023-03-04T03:32:55.112Z,7.43
2023-03-04T03:35:21.713Z,7.11
2023-03-04T03:37:49.200Z,6.98
2023-03-04T03:40:15.904Z,7.49
2023-03-04T03:42:42.360Z,7.42
2023-03-04T03:45:09.244Z,7.36
2023-03-04T03:47:36.099Z,7.52
2023-03-04T03:50:03.040Z,7.36
2023-03-04T03:52:30.416Z,7.09
2023-03-04T03:54:57.043Z,7.51
2023-03-04T03:57:23.806Z,7.42
2023-03-04T03:59:50.349Z,7.23
2023-03-04T04:02:16.938Z,7.27
2023-03-04T04:04:43.509Z,7.01
2023-03-04T04:07:10.137Z,7.38
2023-03-04T04:09:36.688Z,7.25
2023-03-04T04:12:05.921Z,7.16
2023-03-04T04:14:32.838Z,7.24
2023-03-04T04:16:59.495Z,7.25
2023-03-04T04:19:26.151Z,7.34
2023-03-04T04:21:55.659Z,7.33
2023-03-04T04:24:22.188Z,7.28
2023-03-04T04:26:48.672Z,7.19
2023-03-04T04:29:16.361Z,7.10
2023-03-04T04:31:43.061Z,6.39
2023-03-04T04:34:09.702Z,6.77
2023-03-04T04:36:36.411Z,7.09
2023-03-04T04:39:03.555Z,7.02
2023-03-04T04:41:34.964Z,6.92
2023-03-04T04:44:01.485Z,7.22
2023-03-04T04:46:28.078Z,7.11
2023-03-04T04:48:54.525Z,7.24
2023-03-04T04:51:21.053Z,7.33
2023-03-04T04:53:48.397Z,7.09
2023-03-04T04:56:17.875Z,7.17
2023-03-04T04:58:45.881Z,7.25
2023-03-04T05:01:12.916Z,7.39
2023-03-04T05:03:39.795Z,7.32
2023-03-04T05:06:08.342Z,7.15
2023-03-04T05:08:35.764Z,7.11
2023-03-04T05:11:03.392Z,7.28
2023-03-04T05:13:30.272Z,7.18
2023-03-04T05:15:57.999Z,7.38
2023-03-04T05:18:26.297Z,7.05
2023-03-04T05:21:01.373Z,7.32
2023-03-04T05:23:30.850Z,6.98
2023-03-04T05:25:57.379Z,7.36
2023-03-04T05:28:24.222Z,7.25
2023-03-04T05:30:50.901Z,7.49
2023-03-04T05:33:18.214Z,7.53
2023-03-04T05:35:46.098Z,7.50
2023-03-04T05:38:15.724Z,7.53
2023-03-04T05:40:42.254Z,7.37
2023-03-04T05:43:09.129Z,7.33
2023-03-04T05:45:35.793Z,6.75
2023-03-04T05:48:03.218Z,7.10
2023-03-04T05:50:30.965Z,7.10
2023-03-04T05:52:58.048Z,7.14
2023-03-04T05:55:24.939Z,7.05
2023-03-04T05:57:51.416Z,6.98
2023-03-04T06:00:18.220Z,7.05
2023-03-04T06:02:45.366Z,6.70
2023-03-04T06:05:13.962Z,7.09
2023-03-04T06:07:43.204Z,7.01
2023-03-04T06:10:10.887Z,7.04
2023-03-04T06:12:37.479Z,7.04
2023-03-04T06:15:04.341Z,6.97
2023-03-04T06:17:30.853Z,7.05
2023-03-04T06:19:57.429Z,6.66
2023-03-04T06:22:24.105Z,6.98
2023-03-04T06:24:50.621Z,6.68
2023-03-04T06:27:17.183Z,6.94
2023-03-04T06:29:43.640Z,6.80
2023-03-04T06:32:10.330Z,6.90
2023-03-04T06:34:37.372Z,6.93
2023-03-04T06:37:04.023Z,6.91
2023-03-04T06:39:30.557Z,6.91
2023-03-04T06:41:56.995Z,6.83
2023-03-04T06:44:23.468Z,6.71
2023-03-04T06:46:49.989Z,6.89
2023-03-04T06:49:16.547Z,6.55
2023-03-04T06:51:43.109Z,6.98
2023-03-04T06:54:10.653Z,7.02
2023-03-04T06:56:37.229Z,7.06
2023-03-04T06:59:03.737Z,6.84
2023-03-04T07:01:30.294Z,6.99
2023-03-04T07:03:57.832Z,5.94
2023-03-04T07:06:26.946Z,6.80
2023-03-04T07:08:54.066Z,6.11
2023-03-04T07:11:22.070Z,6.81
2023-03-04T07:13:49.341Z,6.74
2023-03-04T07:16:19.578Z,6.87
2023-03-04T07:18:47.264Z,6.57
2023-03-04T07:21:15.219Z,6.89
2023-03-04T07:23:41.752Z,6.60
2023-03-04T07:26:08.402Z,6.82
2023-03-04T07:28:36.032Z,6.64
2023-03-04T07:31:30.309Z,6.80
2023-03-04T07:33:59.751Z,7.08
2023-03-04T07:36:26.411Z,7.05
2023-03-04T07:38:54.863Z,6.99
2023-03-04T07:41:22.815Z,6.91
2023-03-04T07:43:49.634Z,7.15
2023-03-04T07:46:16.888Z,7.18
2023-03-04T07:48:43.463Z,7.07
2023-03-04T07:51:15.461Z,7.05
2023-03-04T07:53:44.869Z,7.18
2023-03-04T07:56:14.608Z,6.90
2023-03-04T07:58:41.073Z,6.84
2023-03-04T08:01:16.625Z,7.05
2023-03-04T08:03:43.209Z,6.98
2023-03-04T08:06:12.405Z,7.07
2023-03-04T08:08:39.943Z,6.94
2023-03-04T08:11:12.200Z,7.07
2023-03-04T08:13:38.761Z,6.99
2023-03-04T08:16:06.073Z,7.03
2023-03-04T08:18:32.869Z,7.04
2023-03-04T08:20:59.956Z,6.99
2023-03-04T08:23:26.456Z,7.23
2023-03-04T08:25:53.376Z,7.26
2023-03-04T08:28:20.120Z,7.07
2023-03-04T08:30:53.530Z,7.17
2023-03-04T08:33:20.101Z,7.33
2023-03-04T08:35:46.795Z,6.74
2023-03-04T08:38:13.321Z,6.81
2023-03-04T08:40:40.080Z,7.18
2023-03-04T08:43:06.600Z,7.19
2023-03-04T08:45:33.072Z,7.27
2023-03-04T08:47:59.581Z,7.31
2023-03-04T08:50:27.582Z,7.33
2023-03-04T08:52:55.964Z,7.24
2023-03-04T08:55:22.557Z,7.05
2023-03-04T08:57:49.039Z,7.02
2023-03-04T09:00:16.097Z,7.01
2023-03-04T09:02:43.694Z,6.67
2023-03-04T09:05:10.254Z,6.92
2023-03-04T09:07:36.778Z,6.98
2023-03-04T09:10:04.201Z,6.97
2023-03-04T09:12:30.796Z,7.03
2023-03-04T09:15:10.175Z,6.90
2023-03-04T09:17:37.929Z,6.67
2023-03-04T09:20:05.262Z,6.62
2023-03-04T09:22:31.948Z,6.58
2023-03-04T09:24:58.444Z,7.27
2023-03-04T09:27:24.999Z,7.18
2023-03-04T09:29:51.521Z,7.16
2023-03-04T09:32:18.163Z,6.71
2023-03-04T09:34:44.860Z,6.88
2023-03-04T09:37:11.711Z,7.08
2023-03-04T09:39:38.262Z,6.90
2023-03-04T09:42:08.641Z,6.51
2023-03-04T09:44:41.099Z,7.37
2023-03-04T09:47:13.541Z,7.12
2023-03-04T09:49:44.827Z,7.29
2023-03-04T09:52:48.567Z,7.12
2023-03-04T09:55:22.226Z,7.25
2023-03-04T09:58:10.770Z,7.36
2023-03-04T10:00:47.137Z,7.56
2023-03-04T10:03:20.080Z,7.62
2023-03-04T10:06:00.936Z,7.67
2023-03-04T10:08:40.189Z,7.42
2023-03-04T10:11:17.002Z,7.26
2023-03-04T10:14:03.838Z,7.36
2023-03-04T10:16:41.329Z,7.07
2023-03-04T10:19:13.787Z,7.63
2023-03-04T10:21:46.642Z,6.93
2023-03-04T10:24:19.493Z,8.37
2023-03-04T10:26:49.570Z,8.55
2023-03-04T10:29:19.213Z,8.81
2023-03-04T10:31:46.523Z,8.41
2023-03-04T10:34:14.894Z,8.18
2023-03-04T10:36:55.142Z,8.23
2023-03-04T10:39:27.457Z,8.77
2023-03-04T10:41:58.061Z,8.64
2023-03-04T10:44:25.244Z,8.60
2023-03-04T10:46:54.813Z,8.69
2023-03-04T10:49:22.258Z,8.55
2023-03-04T10:51:52.876Z,8.16
2023-03-04T10:54:41.940Z,8.50
2023-03-04T10:57:38.966Z,7.82
2023-03-04T11:00:17.518Z,8.13
2023-03-04T11:02:45.550Z,8.39
2023-03-04T11:05:15.345Z,8.57
2023-03-04T11:07:55.644Z,8.71
2023-03-04T11:10:32.199Z,8.43
2023-03-04T11:12:58.671Z,8.72
2023-03-04T11:15:29.479Z,8.56
2023-03-04T11:18:12.801Z,8.85
2023-03-04T11:20:46.775Z,9.18
2023-03-04T11:23:36.026Z,8.93
2023-03-04T11:26:06.562Z,9.19
2023-03-04T11:28:49.771Z,9.13
2023-03-04T11:31:21.494Z,9.31
2023-03-04T11:33:56.730Z,10.26
2023-03-04T11:36:55.089Z,9.62
2023-03-04T11:39:43.918Z,9.33
2023-03-04T11:42:39.215Z,9.19
2023-03-04T11:45:27.778Z,9.92
2023-03-04T11:48:19.215Z,10.04
2023-03-04T11:50:51.316Z,10.56
2023-03-04T11:53:36.974Z,10.14
2023-03-04T11:56:24.949Z,10.52
2023-03-04T11:58:54.497Z,10.25
2023-03-04T12:01:33.232Z,9.80
2023-03-04T12:04:21.871Z,9.29
2023-03-04T12:07:06.519Z,8.93
2023-03-04T12:09:53.440Z,9.07
2023-03-04T12:12:43.105Z,9.05
2023-03-04T12:15:28.422Z,9.03
2023-03-04T12:18:31.180Z,9.24
2023-03-04T12:21:16.035Z,9.45
2023-03-04T12:24:07.780Z,9.44
2023-03-04T12:26:49.496Z,9.84
2023-03-04T12:29:39.468Z,9.80
2023-03-04T12:32:14.166Z,9.60
2023-03-04T12:34:58.936Z,9.30
2023-03-04T12:37:58.548Z,9.38
2023-03-04T12:40:28.514Z,9.11
2023-03-04T12:43:01.113Z,9.42
2023-03-04T12:45:51.472Z,9.61
2023-03-04T12:48:30.581Z,9.94
2023-03-04T12:51:09.799Z,9.68
2023-03-04T12:53:56.706Z,9.52
2023-03-04T12:56:33.120Z,10.48
2023-03-04T12:59:00.880Z,13.44
2023-03-04T13:01:39.681Z,13.89
2023-03-04T13:04:18.567Z,13.79
2023-03-04T13:07:22.196Z,12.77
2023-03-04T13:09:57.404Z,12.16
2023-03-04T13:12:24.258Z,10.34
2023-03-04T13:15:08.990Z,11.02
2023-03-04T13:17:51.948Z,10.19
2023-03-04T13:20:26.400Z,9.74
2023-03-04T13:22:55.915Z,9.68
2023-03-04T13:25:34.674Z,9.78
2023-03-04T13:28:10.301Z,9.93
2023-03-04T13:30:38.263Z,10.21
2023-03-04T13:33:11.131Z,10.75
2023-03-04T13:35:47.148Z,10.58
2023-03-04T13:38:32.424Z,10.01
2023-03-04T13:41:25.267Z,9.69
2023-03-04T13:43:53.060Z,9.70
2023-03-04T13:46:19.665Z,9.60
2023-03-04T13:48:52.462Z,9.48
2023-03-04T13:51:28.821Z,9.50
2023-03-04T13:54:16.400Z,9.30
2023-03-04T13:56:47.785Z,9.25
2023-03-04T13:59:22.352Z,9.12
2023-03-04T14:02:18.747Z,9.42
2023-03-04T14:05:05.758Z,9.20
2023-03-04T14:07:36.557Z,8.65
2023-03-04T14:10:08.101Z,8.63
2023-03-04T14:12:40.991Z,8.25
2023-03-04T14:15:13.296Z,8.42
2023-03-04T14:17:44.562Z,8.41
2023-03-04T14:20:29.585Z,8.63
2023-03-04T14:22:57.301Z,8.70
2023-03-04T14:25:29.730Z,8.45
2023-03-04T14:28:14.522Z,8.44
2023-03-04T14:30:44.402Z,8.50
2023-03-04T14:33:18.739Z,9.05
2023-03-04T14:35:52.602Z,8.77
2023-03-04T14:38:35.040Z,8.49
2023-03-04T14:41:12.664Z,8.10
2023-03-04T14:43:56.270Z,8.10
2023-03-04T14:46:27.162Z,8.25
2023-03-04T14:48:54.615Z,8.17
2023-03-04T14:51:41.642Z,8.18
2023-03-04T14:54:31.141Z,8.12
2023-03-04T14:56:59.734Z,8.24
2023-03-04T14:59:34.298Z,8.26
2023-03-04T15:02:31.474Z,8.28
2023-03-04T15:05:00.659Z,7.87
2023-03-04T15:07:33.760Z,7.18
2023-03-04T15:10:02.570Z,7.54
2023-03-04T15:12:31.760Z,7.62
2023-03-04T15:15:00.596Z,7.37
2023-03-04T15:17:40.654Z,7.67
2023-03-04T15:20:07.087Z,7.74
2023-03-04T15:22:58.254Z,7.79
2023-03-04T15:25:25.134Z,7.35
2023-03-04T15:27:51.988Z,7.47
2023-03-04T15:30:27.465Z,7.55
2023-03-04T15:32:58.087Z,7.69
2023-03-04T15:35:27.561Z,7.01
2023-03-04T15:37:55.716Z,7.54
2023-03-04T15:40:34.416Z,7.35
2023-03-04T15:43:03.227Z,7.56
2023-03-04T15:45:36.117Z,7.34
2023-03-04T15:48:07.719Z,7.26
2023-03-04T15:50:37.869Z,7.25
2023-03-04T15:53:08.713Z,7.27
2023-03-04T15:55:35.582Z,7.07
2023-03-04T15:58:03.481Z,6.83
2023-03-04T16:00:32.135Z,7.29
2023-03-04T16:02:58.686Z,7.42
2023-03-04T16:05:25.233Z,6.90
2023-03-04T16:07:52.472Z,7.08
2023-03-04T16:10:27.550Z,7.02
2023-03-04T16:12:54.418Z,6.85
2023-03-04T16:15:23.624Z,7.01
2023-03-04T16:17:50.495Z,6.60
2023-03-04T16:20:20.849Z,7.00
2023-03-04T16:22:51.347Z,7.09
2023-03-04T16:25:18.936Z,6.96
2023-03-04T16:27:45.990Z,6.93
2023-03-04T16:30:19.453Z,6.81
2023-03-04T16:32:46.007Z,6.83
2023-03-04T16:35:13.853Z,6.81
2023-03-04T16:37:41.336Z,6.67
2023-03-04T16:40:11.653Z,6.69
2023-03-04T16:42:38.241Z,6.44
2023-03-04T16:45:05.077Z,6.72
2023-03-04T16:47:31.633Z,6.76
2023-03-04T16:49:58.923Z,6.22
2023-03-04T16:52:33.713Z,6.18
2023-03-04T16:55:00.557Z,6.40
2023-03-04T16:57:28.782Z,6.04
2023-03-04T16:59:55.427Z,6.42
2023-03-04T17:02:26.892Z,6.47
2023-03-04T17:04:53.508Z,6.04
2023-03-04T17:07:20.050Z,6.34
2023-03-04T17:09:46.524Z,6.10
2023-03-04T17:12:13.045Z,6.27
2023-03-04T17:14:39.918Z,6.31
2023-03-04T17:17:07.495Z,6.23
2023-03-04T17:19:34.041Z,6.04
2023-03-04T17:22:02.613Z,5.83
2023-03-04T17:24:30.083Z,5.99
2023-03-04T17:26:56.613Z,5.61
2023-03-04T17:29:23.141Z,6.10
2023-03-04T17:31:49.734Z,5.74
2023-03-04T17:34:18.085Z,5.93
2023-03-04T17:36:44.562Z,5.62
2023-03-04T17:39:14.140Z,5.87
2023-03-04T17:41:40.771Z,5.90
2023-03-04T17:44:07.329Z,5.84
2023-03-04T17:46:34.013Z,6.11
2023-03-04T17:49:00.737Z,5.39
2023-03-04T17:51:35.643Z,5.90
2023-03-04T17:54:05.549Z,5.97
2023-03-04T17:56:33.694Z,5.89
2023-03-04T17:59:01.615Z,5.99
2023-03-04T18:01:28.479Z,5.50
2023-03-04T18:03:55.114Z,5.58
2023-03-04T18:06:24.207Z,5.69
2023-03-04T18:08:52.442Z,5.34
2023-03-04T18:11:24.175Z,5.52
2023-03-04T18:13:51.622Z,5.38
2023-03-04T18:16:23.579Z,5.34
2023-03-04T18:18:51.325Z,5.60
2023-03-04T18:21:19.017Z,5.60
2023-03-04T18:23:45.898Z,5.28
2023-03-04T18:26:13.152Z,5.44
2023-03-04T18:28:39.771Z,5.32
2023-03-04T18:31:06.422Z,5.26
2023-03-04T18:33:34.515Z,5.26
2023-03-04T18:36:06.010Z,4.98
2023-03-04T18:38:32.870Z,5.23
2023-03-04T18:41:00.997Z,5.30
2023-03-04T18:43:28.054Z,5.11
2023-03-04T18:46:05.611Z,5.23
2023-03-04T18:48:36.628Z,4.96
2023-03-04T18:51:03.243Z,5.07
2023-03-04T18:53:30.955Z,5.25
2023-03-04T18:56:03.147Z,5.01
2023-03-04T18:58:33.894Z,5.09
2023-03-04T19:01:05.021Z,4.96
2023-03-04T19:03:34.322Z,4.63
2023-03-04T19:06:01.511Z,4.84
2023-03-04T19:08:28.074Z,4.93
2023-03-04T19:10:55.957Z,4.80
2023-03-04T19:13:22.852Z,4.27
2023-03-04T19:15:53.870Z,4.30
2023-03-04T19:18:20.840Z,4.39
2023-03-04T19:20:47.359Z,4.78
2023-03-04T19:23:14.316Z,4.79
2023-03-04T19:25:47.168Z,3.50
2023-03-04T19:28:13.851Z,4.31
2023-03-04T19:30:41.682Z,4.62
2023-03-04T19:33:08.367Z,4.66
2023-03-04T19:35:39.523Z,4.48
2023-03-04T19:38:06.107Z,4.63
2023-03-04T19:40:34.243Z,4.64
2023-03-04T19:43:00.735Z,4.37
2023-03-04T19:45:27.268Z,4.72
2023-03-04T19:47:53.826Z,4.70
2023-03-04T19:50:20.457Z,4.75
2023-03-04T19:52:47.078Z,4.77
2023-03-04T19:55:13.826Z,4.70
2023-03-04T19:57:44.335Z,4.33
2023-03-04T20:00:12.491Z,4.89
2023-03-04T20:02:39.191Z,4.63
2023-03-04T20:05:06.655Z,4.88
2023-03-04T20:07:33.116Z,4.82
2023-03-04T20:09:59.531Z,4.79
2023-03-04T20:12:26.124Z,4.76
2023-03-04T20:14:52.710Z,4.83
2023-03-04T20:17:19.261Z,4.37
2023-03-04T20:19:46.241Z,4.19
2023-03-04T20:22:13.504Z,4.71
2023-03-04T20:24:40.151Z,4.43
2023-03-04T20:27:06.681Z,4.20
2023-03-04T20:29:33.165Z,4.36
2023-03-04T20:31:59.830Z,3.79
2023-03-04T20:34:27.184Z,4.52
2023-03-04T20:36:53.800Z,4.34
2023-03-04T20:39:29.299Z,4.15
2023-03-04T20:41:57.924Z,4.47
2023-03-04T20:44:24.808Z,4.60
2023-03-04T20:46:52.290Z,4.71
2023-03-04T20:49:24.285Z,4.57
2023-03-04T20:51:52.425Z,4.77
2023-03-04T20:54:19.683Z,4.70
2023-03-04T20:56:46.449Z,4.30
2023-03-04T20:59:13.069Z,4.76
2023-03-04T21:01:43.137Z,4.55
2023-03-04T21:04:10.116Z,4.22
2023-03-04T21:06:38.780Z,4.60
2023-03-04T21:09:08.155Z,4.94
2023-03-04T21:11:40.239Z,4.85
2023-03-04T21:14:12.164Z,5.04
2023-03-04T21:16:38.665Z,4.58
2023-03-04T21:19:05.337Z,5.03
2023-03-04T21:21:31.986Z,5.24
2023-03-04T21:23:59.281Z,5.31
2023-03-04T21:26:26.048Z,4.88
2023-03-04T21:28:53.971Z,4.85
2023-03-04T21:31:23.927Z,5.03
2023-03-04T21:33:51.253Z,5.07
2023-03-04T21:36:17.793Z,5.08
2023-03-04T21:38:45.001Z,5.11
2023-03-04T21:41:16.738Z,5.10
2023-03-04T21:43:43.367Z,5.10
2023-03-04T21:46:13.172Z,4.82
2023-03-04T21:48:40.004Z,4.94
2023-03-04T21:51:08.369Z,4.92
2023-03-04T21:53:36.194Z,5.02
2023-03-04T21:56:04.108Z,5.13
2023-03-04T21:58:31.082Z,5.10
2023-03-04T22:00:59.218Z,4.76
2023-03-04T22:03:27.171Z,4.98
2023-03-04T22:05:53.625Z,4.83
2023-03-04T22:08:20.832Z,4.70
2023-03-04T22:10:50.393Z,4.71
2023-03-04T22:13:16.995Z,4.55
2023-03-04T22:15:44.808Z,4.74
2023-03-04T22:18:13.611Z,4.68
2023-03-04T22:20:42.490Z,4.44
2023-03-04T22:23:10.150Z,2.97
2023-03-04T22:25:38.285Z,4.60
2023-03-04T22:28:05.705Z,4.85
2023-03-04T22:30:33.180Z,4.80
2023-03-04T22:32:59.663Z,3.91
2023-03-04T22:35:26.340Z,4.47
2023-03-04T22:37:53.089Z,4.79
2023-03-04T22:40:20.224Z,4.79
2023-03-04T22:42:47.627Z,4.83
2023-03-04T22:45:16.471Z,4.91
2023-03-04T22:47:51.271Z,4.89
2023-03-04T22:50:19.924Z,4.83
2023-03-04T22:52:49.861Z,4.86
2023-03-04T22:55:18.420Z,4.94
2023-03-04T22:57:45.547Z,4.87
2023-03-04T23:00:15.633Z,4.72
2023-03-04T23:02:42.340Z,4.90
2023-03-04T23:05:09.346Z,4.88
2023-03-04T23:07:36.472Z,4.78
2023-03-04T23:10:04.391Z,4.82
2023-03-04T23:12:35.360Z,4.46
2023-03-04T23:15:01.903Z,4.03
2023-03-04T23:17:28.382Z,4.74
2023-03-04T23:19:54.924Z,4.88
2023-03-04T23:22:21.440Z,4.88
2023-03-04T23:24:47.939Z,4.77
2023-03-04T23:27:14.636Z,4.75
2023-03-04T23:29:41.086Z,4.87
2023-03-04T23:32:08.379Z,4.97
2023-03-04T23:34:36.687Z,4.29
2023-03-04T23:37:03.868Z,4.76
2023-03-04T23:39:30.404Z,4.71
2023-03-04T23:41:56.920Z,4.68
2023-03-04T23:44:23.423Z,4.69
2023-03-04T23:46:51.097Z,4.70
2023-03-04T23:49:18.084Z,4.61
2023-03-04T23:51:45.358Z,4.60
2023-03-04T23:54:13.835Z,4.69
2023-03-04T23:56:40.904Z,4.69
2023-03-04T23:59:07.935Z,4.66
